createdAt,value
2022-11-12T00:04:12.646Z,63.80
2022-11-12T00:09:11.982Z,53.10
2022-11-12T00:14:11.395Z,53.30
2022-11-12T00:19:10.424Z,57.20
2022-11-12T00:24:09.759Z,59.90
2022-11-12T00:29:11.758Z,52.30
2022-11-12T00:34:07.995Z,54.40
2022-11-12T00:39:07.313Z,52.00
2022-11-12T00:44:06.567Z,55.60
2022-11-12T00:49:06.825Z,70.40
2022-11-12T00:54:05.001Z,228.00
2022-11-12T00:59:04.179Z,212.50
2022-11-12T01:04:04.422Z,201.00
2022-11-12T01:09:03.611Z,181.50
2022-11-12T01:14:02.812Z,174.40
2022-11-12T01:19:00.993Z,166.20
2022-11-12T01:24:01.186Z,159.40
2022-11-12T01:29:00.380Z,153.60
2022-11-12T01:33:58.558Z,144.90
2022-11-12T01:38:58.722Z,139.60
2022-11-12T01:43:57.894Z,131.50
2022-11-12T01:48:56.065Z,128.40
2022-11-12T01:53:56.216Z,124.60
2022-11-12T01:58:54.416Z,119.10
2022-11-12T02:03:54.571Z,111.20
2022-11-12T02:08:52.746Z,106.10
2022-11-12T02:13:51.938Z,102.50
2022-11-12T02:18:51.119Z,95.40
2022-11-12T02:23:50.304Z,93.60
2022-11-12T02:28:49.755Z,90.40
2022-11-12T02:33:49.894Z,84.80
2022-11-12T02:38:48.192Z,80.90
2022-11-12T02:43:48.595Z,76.40
2022-11-12T02:48:47.724Z,75.20
2022-11-12T02:53:46.035Z,68.50
2022-11-12T02:58:45.330Z,66.40
2022-11-12T03:03:45.619Z,67.60
2022-11-12T03:08:43.916Z,63.40
2022-11-12T03:13:43.211Z,62.20
2022-11-12T03:18:43.510Z,58.20
2022-11-12T03:23:41.773Z,57.60
2022-11-12T03:28:42.107Z,55.60
2022-11-12T03:33:40.400Z,51.00
2022-11-12T03:38:40.695Z,51.70
2022-11-12T03:43:38.992Z,46.40
2022-11-12T03:48:39.115Z,48.60
2022-11-12T03:53:37.383Z,45.10
2022-11-12T03:58:37.719Z,44.50
2022-11-12T04:03:35.811Z,42.20
2022-11-12T04:08:35.121Z,41.30
2022-11-12T04:13:35.430Z,37.60
2022-11-12T04:18:34.784Z,35.90
2022-11-12T04:23:33.884Z,34.00
2022-11-12T04:28:33.172Z,34.70
2022-11-12T04:33:32.456Z,31.80
2022-11-12T04:38:30.726Z,30.60
2022-11-12T04:43:31.010Z,28.30
2022-11-12T04:48:31.327Z,27.80
2022-11-12T04:53:28.602Z,27.10
2022-11-12T04:58:28.230Z,25.50
2022-11-12T05:03:30.080Z,25.10
2022-11-12T05:08:28.614Z,25.10
2022-11-12T05:13:26.651Z,23.00
2022-11-12T05:18:25.187Z,23.70
2022-11-12T05:23:24.078Z,21.20
2022-11-12T05:28:24.662Z,20.10
2022-11-12T05:33:22.629Z,20.70
2022-11-12T05:38:21.916Z,19.70
2022-11-12T05:43:22.208Z,18.30
2022-11-12T05:48:24.357Z,18.10
2022-11-12T05:53:19.782Z,17.10
2022-11-12T05:58:19.090Z,17.90
2022-11-12T06:03:18.421Z,16.10
2022-11-12T06:08:18.597Z,16.00
2022-11-12T06:13:17.776Z,15.10
2022-11-12T06:18:15.895Z,15.60
2022-11-12T06:23:15.197Z,14.50
2022-11-12T06:28:15.795Z,12.80
2022-11-12T06:33:13.727Z,13.30
2022-11-12T06:38:13.007Z,12.90
2022-11-12T06:43:12.283Z,11.30
2022-11-12T06:48:13.736Z,11.60
2022-11-12T06:53:10.792Z,11.50
2022-11-12T06:58:11.086Z,11.50
2022-11-12T07:03:10.360Z,11.10
2022-11-12T07:08:10.629Z,10.40
2022-11-12T07:13:07.898Z,10.50
2022-11-12T07:18:08.226Z,9.60
2022-11-12T07:23:07.539Z,9.20
2022-11-12T07:28:05.830Z,10.30
2022-11-12T07:33:06.152Z,8.80
2022-11-12T07:38:04.474Z,8.80
2022-11-12T07:43:03.787Z,8.40
2022-11-12T07:48:03.092Z,7.60
2022-11-12T07:53:03.414Z,7.50
2022-11-12T07:58:02.696Z,7.10
2022-11-12T08:03:01.010Z,8.00
2022-11-12T08:08:00.449Z,7.00
2022-11-12T08:12:59.638Z,7.40
2022-11-12T08:17:58.919Z,6.80
2022-11-12T08:22:59.191Z,6.50
2022-11-12T08:27:58.461Z,6.20
2022-11-12T08:32:57.747Z,6.90
2022-11-12T08:37:55.980Z,7.00
2022-11-12T08:42:55.266Z,6.30
2022-11-12T08:47:54.564Z,6.40
2022-11-12T08:52:53.892Z,5.80
2022-11-12T08:57:53.194Z,6.10
2022-11-12T09:02:52.460Z,5.80
2022-11-12T09:07:51.781Z,5.60
2022-11-12T09:12:50.870Z,5.60
2022-11-12T09:17:50.181Z,5.10
2022-11-12T09:22:51.472Z,5.50
2022-11-12T09:27:49.820Z,5.10
2022-11-12T09:32:48.122Z,5.50
2022-11-12T09:37:47.468Z,5.00
2022-11-12T09:42:46.602Z,6.00
2022-11-12T09:47:45.771Z,142.70
2022-11-12T09:52:43.871Z,150.50
2022-11-12T09:57:45.199Z,120.40
2022-11-12T10:02:43.523Z,109.00
2022-11-12T10:07:43.881Z,243.40
2022-11-12T10:12:42.988Z,234.60
2022-11-12T10:17:41.289Z,314.00
2022-11-12T10:22:40.589Z,363.00
2022-11-12T10:27:39.910Z,316.00
2022-11-12T10:32:39.032Z,248.50
2022-11-12T10:37:39.358Z,231.00
2022-11-12T10:42:38.651Z,197.70
2022-11-12T10:47:37.977Z,183.60
2022-11-12T10:52:36.276Z,160.50
2022-11-12T10:57:39.703Z,140.00
2022-11-12T11:02:36.808Z,121.30
2022-11-12T11:07:34.108Z,107.70
2022-11-12T11:12:34.427Z,100.60
2022-11-12T11:17:33.750Z,88.50
2022-11-12T11:22:32.053Z,81.90
2022-11-12T11:27:31.357Z,72.90
2022-11-12T11:32:36.108Z,68.70
2022-11-12T11:37:30.836Z,63.50
2022-11-12T11:42:29.162Z,59.10
2022-11-12T11:47:44.002Z,54.70
2022-11-12T11:52:27.635Z,50.60
2022-11-12T11:57:26.956Z,48.70
2022-11-12T12:02:26.109Z,46.20
2022-11-12T12:07:26.271Z,42.30
2022-11-12T12:12:27.412Z,41.90
2022-11-12T12:17:27.846Z,147.50
2022-11-12T12:22:23.017Z,171.60
2022-11-12T12:27:22.193Z,140.70
2022-11-12T12:32:24.505Z,136.80
2022-11-12T12:37:21.583Z,234.80
2022-11-12T12:42:19.729Z,291.00
2022-11-12T12:47:19.876Z,355.00
2022-11-12T12:52:19.202Z,338.20
2022-11-12T12:57:18.492Z,432.50
2022-11-12T13:02:16.882Z,236.70
2022-11-12T13:07:16.000Z,145.50
2022-11-12T13:12:15.100Z,115.60
2022-11-12T13:17:16.410Z,95.40
2022-11-12T13:22:14.675Z,89.50
2022-11-12T13:27:13.932Z,108.80
2022-11-12T13:32:12.228Z,73.40
2022-11-12T13:37:11.521Z,61.50
2022-11-12T13:42:10.822Z,51.90
2022-11-12T13:47:10.110Z,47.40
2022-11-12T13:52:09.386Z,46.30
2022-11-12T13:57:13.245Z,45.00
2022-11-12T14:02:07.832Z,38.20
2022-11-12T14:07:08.223Z,67.30
2022-11-12T14:12:07.364Z,32.40
2022-11-12T14:17:05.697Z,32.10
2022-11-12T14:22:05.007Z,40.00
2022-11-12T14:27:04.330Z,49.50
2022-11-12T14:32:03.628Z,28.20
2022-11-12T14:37:02.927Z,28.10
2022-11-12T14:42:02.216Z,25.30
2022-11-12T14:47:02.514Z,24.40
2022-11-12T14:52:00.846Z,27.00
2022-11-12T14:57:00.959Z,22.00
2022-11-12T15:02:27.726Z,29.10
2022-11-12T15:06:58.484Z,24.00
2022-11-12T15:11:57.574Z,21.30
2022-11-12T15:16:57.812Z,25.70
2022-11-12T15:21:55.972Z,20.60
2022-11-12T15:26:55.192Z,32.20
2022-11-12T15:31:54.505Z,21.70
2022-11-12T15:36:53.837Z,28.50
2022-11-12T15:41:53.250Z,44.10
2022-11-12T15:46:52.384Z,46.10
2022-11-12T15:51:51.529Z,53.50
2022-11-12T15:56:50.992Z,43.00
2022-11-12T16:01:49.135Z,19.70
2022-11-12T16:06:49.358Z,18.20
2022-11-12T16:11:48.562Z,19.20
2022-11-12T16:16:47.765Z,17.80
2022-11-12T16:21:47.921Z,16.40
2022-11-12T16:26:46.232Z,17.40
2022-11-12T16:31:45.572Z,17.70
2022-11-12T16:36:44.883Z,17.90
2022-11-12T16:41:45.168Z,20.40
2022-11-12T16:46:43.581Z,30.50
2022-11-12T16:51:43.874Z,30.40
2022-11-12T16:56:43.153Z,29.90
2022-11-12T17:01:42.359Z,31.70
2022-11-12T17:06:40.596Z,26.70
2022-11-12T17:11:39.756Z,28.70
2022-11-12T17:16:41.165Z,22.80
2022-11-12T17:21:38.152Z,23.30
2022-11-12T17:26:38.309Z,20.40
2022-11-12T17:31:37.634Z,33.40
2022-11-12T17:36:39.309Z,36.50
2022-11-12T17:41:35.130Z,29.40
2022-11-12T17:46:35.629Z,23.00
2022-11-12T17:51:33.546Z,28.90
2022-11-12T17:56:36.902Z,25.30
2022-11-12T18:01:33.088Z,24.80
2022-11-12T18:06:31.313Z,53.00
2022-11-12T18:11:30.838Z,24.50
2022-11-12T18:16:31.036Z,24.60
2022-11-12T18:21:28.953Z,23.20
2022-11-12T18:26:30.451Z,22.40
2022-11-12T18:31:27.717Z,20.80
2022-11-12T18:36:26.619Z,22.10
2022-11-12T18:41:24.987Z,27.50
2022-11-12T18:46:25.354Z,38.60
2022-11-12T18:51:23.608Z,40.00
2022-11-12T18:56:23.768Z,33.60
2022-11-12T19:01:25.231Z,32.60
2022-11-12T19:06:22.243Z,27.60
2022-11-12T19:11:22.193Z,26.90
2022-11-12T19:16:21.498Z,36.80
2022-11-12T19:21:19.830Z,32.40
2022-11-12T19:26:18.143Z,24.10
2022-11-12T19:31:18.241Z,31.20
2022-11-12T19:36:17.512Z,30.20
2022-11-12T19:41:19.661Z,28.70
2022-11-12T19:46:17.054Z,27.80
2022-11-12T19:51:15.250Z,27.90
2022-11-12T19:56:14.785Z,26.30
2022-11-12T20:01:13.693Z,25.00
2022-11-12T20:06:13.168Z,22.00
2022-11-12T20:11:13.579Z,25.10
2022-11-12T20:16:13.381Z,23.10
2022-11-12T20:21:10.743Z,23.50
2022-11-12T20:26:10.074Z,22.90
2022-11-12T20:31:11.660Z,22.90
2022-11-12T20:36:11.985Z,21.20
2022-11-12T20:41:07.036Z,23.60
2022-11-12T20:46:07.059Z,29.90
2022-11-12T20:51:22.831Z,35.80
2022-11-12T20:56:04.483Z,31.90
2022-11-12T21:01:04.721Z,26.10
2022-11-12T21:06:04.202Z,26.80
2022-11-12T21:11:03.169Z,27.60
2022-11-12T21:16:01.427Z,43.60
2022-11-12T21:21:01.710Z,23.40
2022-11-12T21:26:01.002Z,21.80
2022-11-12T21:31:01.407Z,22.70
2022-11-12T21:36:00.511Z,22.80
2022-11-12T21:40:59.774Z,33.00
2022-11-12T21:45:59.030Z,39.80
2022-11-12T21:50:57.245Z,29.10
2022-11-12T21:55:56.681Z,38.30
2022-11-12T22:00:55.702Z,37.70
2022-11-12T22:05:54.891Z,38.00
2022-11-12T22:10:54.149Z,39.10
2022-11-12T22:15:55.337Z,41.50
2022-11-12T22:20:52.608Z,47.40
2022-11-12T22:25:51.770Z,44.40
2022-11-12T22:30:52.095Z,46.80
2022-11-12T22:35:52.304Z,37.10
2022-11-12T22:40:48.722Z,32.80
2022-11-12T22:45:47.886Z,36.70
2022-11-12T22:50:48.962Z,38.30
2022-11-12T22:55:47.245Z,46.00
2022-11-12T23:00:48.501Z,37.00
2022-11-12T23:05:45.784Z,51.50
2022-11-12T23:10:46.061Z,49.00
2022-11-12T23:15:44.209Z,43.40
2022-11-12T23:20:43.416Z,47.10
2022-11-12T23:25:43.753Z,39.80
2022-11-12T23:31:02.843Z,38.50
2022-11-12T23:35:39.998Z,40.90
2022-11-12T23:40:41.167Z,52.30
2022-11-12T23:45:39.363Z,32.00
2022-11-12T23:50:38.549Z,38.50
2022-11-12T23:55:38.648Z,53.40
